Time;durP1;ratioP1;P1;durP2;ratioP2;P2;SDS_P1;SDS_P2;PMS_P1;PMS_P2;Temp;Humidity;BMP_temperature;BMP_pressure;BME280_temperature;BME280_humidity;BME280_pressure;Samples;Min_cycle;Max_cycle;Signal;HPM_P1;HPM_P2
2022/03/25 00:01:52;;;;;;;1.08;0.90;;;19.60;70.70;;;;;;5057028;27;96129;-61
2022/03/25 00:04:24;;;;;;;1.27;0.75;;;19.60;70.70;;;;;;5059865;27;95905;-63
2022/03/25 00:06:54;;;;;;;0.65;0.65;;;19.70;70.60;;;;;;5063373;27;95256;-63
2022/03/25 00:09:25;;;;;;;1.30;0.52;;;19.80;70.50;;;;;;5059511;27;95813;-61
2022/03/25 00:11:56;;;;;;;0.53;0.53;;;19.90;70.50;;;;;;5064202;27;95603;-68
2022/03/25 00:14:27;;;;;;;1.02;0.70;;;19.90;70.30;;;;;;5048323;27;96806;-65
2022/03/25 00:16:58;;;;;;;;;;;20.00;70.40;;;;;;5042262;27;95873;-61
2022/03/25 00:19:32;;;;;;;1.92;0.32;;;20.10;70.20;;;;;;5061482;27;95658;-62
2022/03/25 00:22:02;;;;;;;1.50;0.82;;;20.10;70.20;;;;;;5045935;27;95966;-65
2022/03/25 00:24:32;;;;;;;1.52;0.50;;;20.20;70.10;;;;;;5041560;27;95915;-64
2022/03/25 00:27:04;;;;;;;2.15;0.60;;;20.30;69.50;;;;;;5057495;27;95979;-63
2022/03/25 00:29:37;;;;;;;0.60;0.45;;;20.30;70.10;;;;;;5045935;27;95678;-67
2022/03/25 00:32:10;;;;;;;0.68;0.45;;;20.30;69.90;;;;;;5053507;27;95881;-68
2022/03/25 00:34:41;;;;;;;1.30;0.93;;;20.40;69.90;;;;;;5065304;27;95908;-64
2022/03/25 00:37:11;;;;;;;0.70;0.43;;;20.50;69.90;;;;;;5055227;27;96007;-64
2022/03/25 00:39:44;;;;;;;0.30;0.30;;;20.60;69.80;;;;;;5064086;27;95932;-67
2022/03/25 00:42:16;;;;;;;0.32;0.32;;;20.60;69.70;;;;;;5022459;27;95819;-65
2022/03/25 00:44:47;;;;;;;0.38;0.38;;;20.70;69.60;;;;;;5061176;27;96263;-66
2022/03/25 00:47:20;;;;;;;0.32;0.32;;;20.70;69.60;;;;;;5033207;27;97176;-66
2022/03/25 00:49:53;;;;;;;0.65;0.40;;;20.80;69.50;;;;;;5067558;27;95584;-65
2022/03/25 00:52:24;;;;;;;0.73;0.50;;;20.80;69.50;;;;;;5065882;27;96067;-62
2022/03/25 00:54:55;;;;;;;1.70;0.40;;;20.90;69.40;;;;;;5035668;27;98405;-65
2022/03/25 00:57:27;;;;;;;0.40;0.40;;;20.90;69.40;;;;;;5043743;27;97304;-70
2022/03/25 00:59:58;;;;;;;0.43;0.40;;;21.00;69.30;;;;;;5040233;27;96030;-70
2022/03/25 01:02:30;;;;;;;1.40;0.40;;;21.10;69.40;;;;;;5020879;27;95801;-64
2022/03/25 01:05:02;;;;;;;0.55;0.20;;;21.10;69.30;;;;;;5037777;27;96562;-68
2022/03/25 01:07:34;;;;;;;0.30;0.30;;;21.10;69.40;;;;;;5020653;27;97235;-66
2022/03/25 01:10:06;;;;;;;0.77;0.50;;;21.20;69.50;;;;;;5028836;27;95847;-66
2022/03/25 01:12:38;;;;;;;0.22;0.22;;;21.30;69.60;;;;;;5025448;27;96233;-66
2022/03/25 01:15:10;;;;;;;0.20;0.20;;;21.40;69.70;;;;;;5001332;27;98826;-66
2022/03/25 01:17:42;;;;;;;0.38;0.32;;;21.40;69.40;;;;;;5045949;27;96787;-66
2022/03/25 01:20:13;;;;;;;0.40;0.40;;;21.50;69.60;;;;;;5040201;27;95775;-67
2022/03/25 01:22:44;;;;;;;1.00;0.65;;;21.50;69.40;;;;;;5018759;27;96027;-65
2022/03/25 01:25:15;;;;;;;0.52;0.43;;;21.60;69.40;;;;;;5040177;27;98521;-66
2022/03/25 01:27:46;;;;;;;0.60;0.60;;;21.70;69.40;;;;;;5043099;27;97330;-65
2022/03/25 01:30:19;;;;;;;2.30;0.63;;;21.70;69.40;;;;;;5040390;27;97391;-64
2022/03/25 01:32:52;;;;;;;0.40;0.40;;;21.80;68.40;;;;;;5066613;27;95922;-65
2022/03/25 01:35:24;;;;;;;0.43;0.43;;;21.90;69.20;;;;;;5069137;27;96010;-66
2022/03/25 01:37:55;;;;;;;2.05;0.40;;;22.00;69.30;;;;;;5042699;27;97260;-66
2022/03/25 01:40:28;;;;;;;0.68;0.22;;;22.00;69.30;;;;;;5072299;27;95237;-68
2022/03/25 01:42:59;;;;;;;0.30;0.30;;;22.10;69.20;;;;;;5069976;27;95424;-65
2022/03/25 01:45:36;;;;;;;0.30;0.30;;;22.20;69.10;;;;;;5040156;27;98664;-66
2022/03/25 01:48:12;;;;;;;0.85;0.40;;;22.30;69.10;;;;;;5046367;27;95794;-65
2022/03/25 01:50:46;;;;;;;0.38;0.38;;;22.30;68.90;;;;;;5071631;27;95523;-66
2022/03/25 01:53:22;;;;;;;0.35;0.30;;;22.50;68.90;;;;;;5069382;27;95480;-68
2022/03/25 01:55:59;;;;;;;1.50;0.52;;;22.60;68.80;;;;;;5042386;27;95960;-66
2022/03/25 01:58:33;;;;;;;1.15;0.30;;;22.60;67.50;;;;;;5043830;27;97481;-67
2022/03/25 02:01:06;;;;;;;1.60;0.57;;;22.60;67.70;;;;;;5055558;27;95523;-67
2022/03/25 02:03:38;;;;;;;0.55;0.38;;;22.70;67.80;;;;;;5047741;27;96074;-68
2022/03/25 02:06:11;;;;;;;0.50;0.50;;;22.80;67.80;;;;;;5053919;27;98031;-63
2022/03/25 02:08:41;;;;;;;0.30;0.30;;;22.90;68.40;;;;;;5049004;27;97495;-67
2022/03/25 02:11:13;;;;;;;0.47;0.30;;;23.00;67.80;;;;;;5049800;27;95569;-61
2022/03/25 02:13:43;;;;;;;;;;;23.00;64.90;;;;;;5057912;27;97669;-61
2022/03/25 02:16:15;;;;;;;0.77;0.40;;;22.90;64.40;;;;;;5051361;27;95652;-61
2022/03/25 02:18:47;;;;;;;0.68;0.30;;;22.70;64.40;;;;;;5043317;27;97368;-68
2022/03/25 02:21:17;;;;;;;0.90;0.40;;;22.60;64.40;;;;;;5027800;27;99760;-61
2022/03/25 02:23:51;;;;;;;0.30;0.30;;;22.60;64.60;;;;;;5033517;27;95982;-61
2022/03/25 02:26:22;;;;;;;0.30;0.30;;;22.50;64.60;;;;;;5047445;27;97337;-62
2022/03/25 02:28:55;;;;;;;0.55;0.38;;;22.50;64.50;;;;;;5041617;27;96445;-62
2022/03/25 02:31:27;;;;;;;0.43;0.30;;;22.40;64.50;;;;;;5034566;27;98862;-62
2022/03/25 02:34:01;;;;;;;1.00;0.40;;;22.50;64.70;;;;;;5041002;27;97581;-61
2022/03/25 02:36:39;;;;;;;0.70;0.63;;;22.50;64.80;;;;;;5056458;27;96411;-61
2022/03/25 02:39:11;;;;;;;0.55;0.30;;;22.40;64.70;;;;;;5040907;27;97605;-61
2022/03/25 02:41:43;;;;;;;0.47;0.17;;;22.40;65.30;;;;;;5036006;27;95902;-61
2022/03/25 02:44:16;;;;;;;0.63;0.47;;;22.40;64.60;;;;;;5044969;27;96457;-61
2022/03/25 02:46:47;;;;;;;0.43;0.40;;;22.40;64.70;;;;;;5031112;27;98212;-63
2022/03/25 02:49:18;;;;;;;0.57;0.20;;;22.50;65.20;;;;;;5043784;27;97965;-61
2022/03/25 02:51:48;;;;;;;0.30;0.28;;;22.50;65.20;;;;;;5053786;27;95760;-62
2022/03/25 02:54:21;;;;;;;0.70;0.30;;;22.60;65.20;;;;;;5065938;27;95853;-63
2022/03/25 02:56:55;;;;;;;0.38;0.30;;;22.60;65.10;;;;;;5065010;27;95975;-68
2022/03/25 02:59:25;;;;;;;0.57;0.40;;;22.70;65.10;;;;;;5066778;27;95670;-68
2022/03/25 03:01:57;;;;;;;0.28;0.28;;;22.70;65.00;;;;;;5047312;27;95762;-61
2022/03/25 03:04:28;;;;;;;0.98;0.30;;;22.70;64.90;;;;;;5061004;27;95717;-69
2022/03/25 03:06:59;;;;;;;0.20;0.20;;;22.70;65.00;;;;;;5068754;27;95851;-69
2022/03/25 03:09:30;;;;;;;0.17;0.17;;;22.80;64.90;;;;;;5066479;27;95841;-60
2022/03/25 03:12:00;;;;;;;0.27;0.27;;;22.80;64.10;;;;;;5059581;27;96070;-69
2022/03/25 03:14:32;;;;;;;0.40;0.40;;;22.80;65.50;;;;;;5048103;27;95654;-62
2022/03/25 03:17:04;;;;;;;0.73;0.30;;;22.80;64.70;;;;;;5057740;27;97295;-61
2022/03/25 03:19:38;;;;;;;1.65;0.30;;;22.80;64.80;;;;;;5053730;27;96045;-71
2022/03/25 03:22:08;;;;;;;0.47;0.23;;;22.80;64.90;;;;;;5057343;27;95717;-70
2022/03/25 03:24:38;;;;;;;2.10;0.52;;;22.80;64.90;;;;;;5057287;27;95780;-61
2022/03/25 03:27:12;;;;;;;0.45;0.30;;;22.90;64.90;;;;;;5063338;27;98228;-61
2022/03/25 03:29:43;;;;;;;0.50;0.35;;;22.90;64.80;;;;;;5059342;27;96302;-61
2022/03/25 03:32:15;;;;;;;0.32;0.32;;;22.90;64.90;;;;;;5059819;27;95905;-61
2022/03/25 03:34:46;;;;;;;0.52;0.45;;;23.00;64.80;;;;;;5064477;27;95687;-62
2022/03/25 03:37:16;;;;;;;0.30;0.30;;;23.10;64.80;;;;;;5061841;27;95877;-69
2022/03/25 03:39:48;;;;;;;0.65;0.35;;;23.10;64.90;;;;;;5040482;27;95752;-62
2022/03/25 03:42:19;;;;;;;1.25;0.50;;;23.10;64.90;;;;;;5046584;27;95876;-65
2022/03/25 03:44:49;;;;;;;1.42;0.43;;;23.10;65.30;;;;;;5063730;27;95242;-64
2022/03/25 03:47:21;;;;;;;0.40;0.40;;;23.10;64.90;;;;;;5059490;27;96463;-68
2022/03/25 03:49:50;;;;;;;2.08;0.63;;;23.20;65.10;;;;;;5058707;27;95517;-68
2022/03/25 03:52:21;;;;;;;0.30;0.30;;;23.20;64.20;;;;;;5048578;27;95855;-70
2022/03/25 03:54:51;;;;;;;0.70;0.55;;;23.20;65.10;;;;;;5067299;27;95635;-63
2022/03/25 03:57:40;;;;;;;1.27;0.30;;;23.20;63.70;;;;;;5065490;27;96353;-73
2022/03/25 04:00:14;;;;;;;0.70;0.40;;;23.10;60.70;;;;;;5063681;27;95958;-68
2022/03/25 04:02:45;;;;;;;0.82;0.50;;;22.90;57.20;;;;;;5050344;27;95983;-61
2022/03/25 04:05:16;;;;;;;1.30;0.50;;;22.80;58.60;;;;;;5058647;27;95684;-68
2022/03/25 04:07:48;;;;;;;1.33;0.40;;;22.90;61.10;;;;;;5070297;27;95922;-68
2022/03/25 04:10:21;;;;;;;0.70;0.52;;;23.00;61.00;;;;;;5072221;27;96268;-70
2022/03/25 04:12:52;;;;;;;2.85;0.60;;;22.90;59.90;;;;;;5053113;27;95832;-66
2022/03/25 04:15:23;;;;;;;1.38;0.50;;;23.00;56.90;;;;;;5041159;27;95679;-65
2022/03/25 04:17:54;;;;;;;;;;;23.00;60.00;;;;;;5069765;27;96016;-72
2022/03/25 04:20:25;;;;;;;0.80;0.40;;;23.10;59.40;;;;;;5064945;27;96549;-73
2022/03/25 04:22:55;;;;;;;1.83;0.70;;;23.20;57.10;;;;;;5057697;27;95903;-70
2022/03/25 04:25:26;;;;;;;5.38;0.90;;;23.20;58.80;;;;;;5062930;27;95823;-70
2022/03/25 04:28:01;;;;;;;1.40;0.50;;;23.10;58.10;;;;;;5049285;27;95898;-72
2022/03/25 04:30:36;;;;;;;2.00;0.50;;;22.60;56.30;;;;;;5038608;27;98299;-69
2022/03/25 04:33:06;;;;;;;1.48;0.50;;;22.30;58.40;;;;;;5042431;27;95870;-72
2022/03/25 04:35:37;;;;;;;1.75;0.50;;;22.30;59.40;;;;;;5041183;27;96165;-68
2022/03/25 04:38:07;;;;;;;1.23;0.50;;;22.50;61.10;;;;;;5059055;27;97083;-70
2022/03/25 04:40:40;;;;;;;1.77;0.50;;;22.50;61.10;;;;;;5058342;27;95487;-68
2022/03/25 04:43:11;;;;;;;1.17;0.50;;;22.60;59.20;;;;;;5046870;27;96502;-66
2022/03/25 04:45:41;;;;;;;3.10;0.55;;;22.70;60.50;;;;;;5058192;27;95708;-68
2022/03/25 04:48:14;;;;;;;3.03;0.88;;;22.60;59.50;;;;;;5060284;27;95877;-66
2022/03/25 04:50:44;;;;;;;1.40;0.63;;;22.70;61.80;;;;;;5066859;27;95406;-69
2022/03/25 04:53:14;;;;;;;2.03;0.50;;;22.60;58.40;;;;;;5065778;27;95983;-68
2022/03/25 04:55:44;;;;;;;1.40;0.50;;;22.50;59.40;;;;;;5046728;27;96075;-70
2022/03/25 04:58:16;;;;;;;1.27;0.60;;;22.40;60.60;;;;;;5043037;27;98038;-70
2022/03/25 05:00:48;;;;;;;3.13;0.43;;;22.40;59.70;;;;;;5036698;27;97574;-65
2022/03/25 05:03:19;;;;;;;0.30;0.30;;;22.50;60.60;;;;;;5058034;27;96042;-64
2022/03/25 05:05:50;;;;;;;1.50;0.55;;;22.70;58.40;;;;;;5058123;27;95644;-63
2022/03/25 05:08:21;;;;;;;;;;;22.90;60.60;;;;;;5038810;27;96349;-66
2022/03/25 05:10:52;;;;;;;1.08;0.60;;;23.00;60.90;;;;;;5053001;27;96707;-66
2022/03/25 05:13:31;;;;;;;3.60;0.65;;;22.90;59.40;;;;;;5052842;27;95660;-67
2022/03/25 05:16:02;;;;;;;6.28;1.05;;;22.60;59.90;;;;;;5057677;27;95793;-67
2022/03/25 05:18:34;;;;;;;1.33;0.70;;;22.60;60.90;;;;;;5067998;27;96068;-66
2022/03/25 05:21:05;;;;;;;8.18;0.73;;;22.50;57.70;;;;;;5053527;27;95870;-65
2022/03/25 05:23:35;;;;;;;;;;;22.20;60.70;;;;;;5065817;27;95584;-66
2022/03/25 05:26:06;;;;;;;2.13;0.50;;;22.00;58.20;;;;;;5072749;27;97900;-65
2022/03/25 05:28:39;;;;;;;0.95;0.70;;;21.90;59.40;;;;;;5066183;27;95842;-65
2022/03/25 05:31:11;;;;;;;0.45;0.30;;;22.10;60.90;;;;;;5059136;27;102500;-66
2022/03/25 05:33:43;;;;;;;2.75;0.60;;;22.30;59.70;;;;;;5066706;27;95619;-66
2022/03/25 05:36:12;;;;;;;5.28;0.63;;;22.30;59.80;;;;;;5065381;27;95406;-66
2022/03/25 05:38:42;;;;;;;7.82;0.93;;;22.20;59.70;;;;;;5060836;27;96567;-66
2022/03/25 05:41:13;;;;;;;2.05;0.68;;;22.30;60.90;;;;;;5062806;27;98203;-66
2022/03/25 05:43:44;;;;;;;4.97;0.65;;;22.50;61.10;;;;;;5047764;27;95635;-67
2022/03/25 05:46:14;;;;;;;4.57;0.95;;;22.80;61.80;;;;;;5056202;27;95299;-66
2022/03/25 05:48:46;;;;;;;2.33;0.90;;;22.90;61.30;;;;;;5067520;27;95933;-66
2022/03/25 05:51:17;;;;;;;2.15;0.93;;;22.80;58.40;;;;;;5068635;27;95944;-68
2022/03/25 05:53:47;;;;;;;3.72;1.25;;;22.70;60.50;;;;;;5064842;27;95983;-68
2022/03/25 05:56:17;;;;;;;4.78;1.00;;;22.60;60.70;;;;;;5041299;27;96884;-67
2022/03/25 05:58:49;;;;;;;11.93;1.58;;;22.50;59.80;;;;;;5063072;27;95892;-68
2022/03/25 06:01:20;;;;;;;3.33;0.80;;;22.30;61.00;;;;;;5059636;27;98428;-68
2022/03/25 06:03:51;;;;;;;0.95;0.63;;;22.30;61.50;;;;;;5048848;27;95873;-65
2022/03/25 06:06:22;;;;;;;2.40;0.60;;;22.40;59.90;;;;;;5066133;27;96018;-70
2022/03/25 06:08:53;;;;;;;4.93;0.70;;;22.30;59.90;;;;;;5062255;27;95880;-68
2022/03/25 06:11:24;;;;;;;0.37;0.30;;;22.30;60.60;;;;;;5048445;27;95762;-68
2022/03/25 06:13:55;;;;;;;2.67;0.52;;;22.20;61.40;;;;;;5063233;27;96310;-68
2022/03/25 06:16:26;;;;;;;;;;;22.40;61.40;;;;;;5030195;27;95766;-70
2022/03/25 06:18:57;;;;;;;5.03;0.93;;;22.70;61.10;;;;;;5047243;27;96157;-67
2022/03/25 06:21:27;;;;;;;2.13;0.50;;;22.60;58.40;;;;;;5026394;27;99240;-65
2022/03/25 06:23:59;;;;;;;4.38;0.70;;;22.60;59.20;;;;;;5035241;27;96018;-66
2022/03/25 06:26:33;;;;;;;0.50;0.50;;;22.40;60.30;;;;;;5040088;27;95704;-68
2022/03/25 06:29:08;;;;;;;2.70;0.55;;;22.50;60.40;;;;;;5046848;27;96376;-64
2022/03/25 06:31:40;;;;;;;1.40;0.82;;;22.60;60.90;;;;;;5037645;27;95919;-66
2022/03/25 06:34:11;;;;;;;6.93;0.80;;;22.60;59.40;;;;;;5042490;27;95706;-67
2022/03/25 06:36:41;;;;;;;2.53;0.73;;;22.60;60.50;;;;;;5047457;27;96709;-66
2022/03/25 06:39:11;;;;;;;2.40;0.80;;;22.70;58.90;;;;;;5046486;27;95820;-65
2022/03/25 06:41:44;;;;;;;2.55;0.70;;;22.60;58.60;;;;;;5045378;27;96053;-66
2022/03/25 06:44:16;;;;;;;3.08;0.70;;;22.30;60.70;;;;;;5026295;27;95628;-67
2022/03/25 06:46:48;;;;;;;1.85;0.85;;;22.40;61.30;;;;;;5033012;27;95730;-65
2022/03/25 06:49:18;;;;;;;2.20;0.75;;;22.20;60.40;;;;;;5032527;27;96664;-65
2022/03/25 06:51:49;;;;;;;1.83;0.60;;;22.20;62.30;;;;;;5034040;27;95811;-64
2022/03/25 06:54:20;;;;;;;3.87;0.83;;;22.30;60.30;;;;;;5035201;27;96014;-67
2022/03/25 06:56:52;;;;;;;3.22;0.65;;;22.20;62.20;;;;;;5033869;27;95758;-68
2022/03/25 06:59:23;;;;;;;5.97;0.90;;;22.20;61.70;;;;;;5038632;27;96426;-65
2022/03/25 07:01:54;;;;;;;;;;;22.00;61.60;;;;;;5034973;27;100069;-67
2022/03/25 07:04:25;;;;;;;3.13;0.75;;;21.90;60.90;;;;;;5061825;27;95657;-65
2022/03/25 07:06:58;;;;;;;4.45;0.90;;;21.80;60.80;;;;;;5065015;27;95793;-63
2022/03/25 07:09:31;;;;;;;5.32;0.93;;;21.40;63.00;;;;;;5059256;27;95887;-67
2022/03/25 07:12:02;;;;;;;3.03;1.13;;;21.10;62.40;;;;;;5065495;27;95804;-61
2022/03/25 07:14:34;;;;;;;2.63;0.65;;;21.10;64.10;;;;;;5068506;27;98145;-65
2022/03/25 07:17:05;;;;;;;4.70;1.25;;;21.00;65.10;;;;;;5053665;27;95671;-70
2022/03/25 07:19:36;;;;;;;4.78;0.90;;;20.90;64.50;;;;;;5042789;27;96785;-68
2022/03/25 07:22:07;;;;;;;2.55;0.40;;;20.80;66.10;;;;;;5043765;27;95417;-68
2022/03/25 07:24:38;;;;;;;0.80;0.50;;;20.70;65.00;;;;;;5042733;27;95852;-69
2022/03/25 07:27:08;;;;;;;;;;;20.60;67.70;;;;;;5053847;27;95748;-65
2022/03/25 07:29:39;;;;;;;4.03;1.35;;;20.50;64.80;;;;;;5060538;27;97642;-65
2022/03/25 07:32:10;;;;;;;1.05;0.70;;;20.50;65.30;;;;;;5047306;27;96013;-68
2022/03/25 07:34:42;;;;;;;4.90;0.60;;;20.40;66.80;;;;;;5053795;27;95858;-67
2022/03/25 07:37:12;;;;;;;4.47;1.00;;;20.20;66.80;;;;;;5061248;27;95911;-69
2022/03/25 07:39:44;;;;;;;;;;;20.10;67.00;;;;;;5061555;27;96492;-67
2022/03/25 07:42:20;;;;;;;2.70;0.80;;;20.00;67.80;;;;;;5064543;27;95926;-70
2022/03/25 07:44:50;;;;;;;5.22;0.90;;;19.90;68.70;;;;;;5054510;27;95726;-69
2022/03/25 07:47:21;;;;;;;6.93;0.88;;;19.80;68.40;;;;;;5047180;27;95444;-69
2022/03/25 07:49:53;;;;;;;4.68;0.60;;;19.50;69.40;;;;;;5039409;27;98029;-67
2022/03/25 07:52:23;;;;;;;0.90;0.80;;;19.40;70.20;;;;;;5059787;27;96504;-68
2022/03/25 07:54:59;;;;;;;6.97;0.80;;;19.30;70.70;;;;;;5063653;27;95310;-65
2022/03/25 07:57:30;;;;;;;2.33;0.52;;;19.10;71.60;;;;;;5065910;27;95558;-67
2022/03/25 08:00:03;;;;;;;2.38;0.70;;;18.90;73.00;;;;;;5062851;27;96129;-65
2022/03/25 08:02:34;;;;;;;1.77;0.93;;;18.80;72.40;;;;;;5052701;27;95517;-65
2022/03/25 08:05:07;;;;;;;3.75;0.73;;;18.90;71.70;;;;;;5056021;27;95467;-70
2022/03/25 08:07:43;;;;;;;4.47;0.60;;;18.80;71.90;;;;;;5057712;27;95993;-68
2022/03/25 08:10:18;;;;;;;2.70;0.73;;;18.70;72.30;;;;;;5057652;27;100507;-68
2022/03/25 08:12:51;;;;;;;8.63;1.58;;;18.60;72.30;;;;;;5059818;27;95940;-65
2022/03/25 08:15:24;;;;;;;4.53;0.90;;;18.50;72.70;;;;;;5052410;27;95807;-65
2022/03/25 08:18:01;;;;;;;6.43;1.17;;;18.70;72.00;;;;;;5046426;27;95675;-70
2022/03/25 08:20:47;;;;;;;4.88;0.68;;;19.10;71.40;;;;;;5030661;27;98158;-69
2022/03/25 08:29:03;;;;;;;3.90;0.82;;;19.00;71.40;;;;;;5044048;27;95751;-64
2022/03/25 08:31:51;;;;;;;2.35;0.65;;;19.10;70.30;;;;;;5030028;27;95893;-70
2022/03/25 08:34:22;;;;;;;3.70;0.93;;;19.00;69.90;;;;;;5028132;27;96012;-70
2022/03/25 08:36:52;;;;;;;4.03;0.85;;;18.90;70.50;;;;;;5027283;27;96368;-70
2022/03/25 08:39:23;;;;;;;0.95;0.50;;;18.90;70.40;;;;;;5026367;27;95660;-65
2022/03/25 08:41:55;;;;;;;2.80;1.17;;;18.90;70.30;;;;;;5028608;27;96585;-65
2022/03/25 08:44:27;;;;;;;6.63;1.30;;;18.80;71.10;;;;;;5031340;27;95395;-64
2022/03/25 08:46:59;;;;;;;5.50;1.88;;;18.70;70.80;;;;;;5051184;27;97111;-70
2022/03/25 08:49:31;;;;;;;2.35;1.05;;;18.70;70.90;;;;;;5062037;27;95657;-65
2022/03/25 08:52:04;;;;;;;4.65;1.25;;;18.70;71.20;;;;;;5059351;27;95977;-69
2022/03/25 08:54:34;;;;;;;3.58;0.75;;;18.70;70.80;;;;;;5058938;27;95887;-64
2022/03/25 08:57:05;;;;;;;7.75;1.30;;;18.50;70.80;;;;;;5059444;27;95825;-64
2022/03/25 08:59:36;;;;;;;5.15;0.60;;;18.50;71.70;;;;;;5066669;27;95333;-65
2022/03/25 09:02:08;;;;;;;21.63;1.48;;;18.40;72.00;;;;;;5035165;27;98734;-65
2022/03/25 09:04:40;;;;;;;8.45;0.98;;;18.40;72.30;;;;;;5038068;27;95739;-64
2022/03/25 09:07:12;;;;;;;2.17;0.70;;;18.40;71.80;;;;;;5038727;27;96491;-64
2022/03/25 09:09:43;;;;;;;3.35;0.85;;;18.10;72.50;;;;;;5032065;27;95671;-70
2022/03/25 09:12:15;;;;;;;3.28;1.05;;;18.00;73.20;;;;;;5042086;27;96702;-65
2022/03/25 09:14:47;;;;;;;3.35;0.70;;;18.10;73.80;;;;;;5038560;27;95912;-64
2022/03/25 09:17:17;;;;;;;5.78;0.90;;;18.10;73.30;;;;;;5049164;27;101601;-70
2022/03/25 09:19:54;;;;;;;2.67;0.90;;;18.10;73.10;;;;;;5057012;27;95836;-70
2022/03/25 09:22:25;;;;;;;3.15;0.98;;;18.10;73.50;;;;;;5052964;27;96728;-64
2022/03/25 09:24:57;;;;;;;5.55;0.85;;;18.10;73.40;;;;;;5045417;27;95913;-59
2022/03/25 09:27:28;;;;;;;2.85;0.68;;;18.40;73.90;;;;;;5064950;27;95797;-60
2022/03/25 09:29:59;;;;;;;2.25;0.60;;;18.90;73.20;;;;;;5039501;27;96009;-60
2022/03/25 09:32:30;;;;;;;2.45;0.70;;;19.20;72.40;;;;;;5017712;27;95936;-59
2022/03/25 09:35:13;;;;;;;3.80;0.90;;;19.40;71.90;;;;;;5045143;27;95910;-59
2022/03/25 09:37:47;;;;;;;2.63;0.75;;;19.60;70.40;;;;;;5046833;27;96347;-60
2022/03/25 09:40:24;;;;;;;0.98;0.32;;;19.70;71.20;;;;;;5041736;27;95973;-60
2022/03/25 09:42:58;;;;;;;3.10;0.82;;;19.80;70.90;;;;;;5032961;27;96212;-60
2022/03/25 09:45:30;;;;;;;3.35;0.80;;;19.90;70.80;;;;;;5035539;27;95933;-59
2022/03/25 09:48:03;;;;;;;2.90;1.00;;;19.90;70.70;;;;;;5024468;27;95926;-59
2022/03/25 09:50:36;;;;;;;5.32;0.70;;;20.00;70.10;;;;;;5039648;27;95828;-61
2022/03/25 09:53:08;;;;;;;3.13;0.77;;;19.90;70.50;;;;;;5045598;27;95817;-59
2022/03/25 09:55:44;;;;;;;2.85;0.70;;;19.70;69.60;;;;;;5048014;27;95503;-61
2022/03/25 09:58:19;;;;;;;5.07;1.15;;;19.40;70.40;;;;;;5050010;27;96104;-58
2022/03/25 10:00:51;;;;;;;4.05;1.27;;;19.20;71.10;;;;;;5041054;27;95785;-59
2022/03/25 10:03:31;;;;;;;2.67;0.75;;;19.10;72.40;;;;;;5020390;27;96482;-63
2022/03/25 10:06:07;;;;;;;0.47;0.45;;;19.50;73.10;;;;;;5027660;27;97581;-58
2022/03/25 10:08:54;;;;;;;2.25;0.57;;;19.80;72.50;;;;;;5026560;27;95942;-58
2022/03/25 10:11:33;;;;;;;3.20;0.98;;;20.00;71.70;;;;;;5040392;27;95705;-56
2022/03/25 10:14:17;;;;;;;1.65;0.73;;;20.20;71.80;;;;;;5041348;27;97056;-56
2022/03/25 10:16:54;;;;;;;1.75;0.82;;;20.30;71.50;;;;;;5014626;27;95804;-57
2022/03/25 10:19:31;;;;;;;0.95;0.60;;;20.30;71.40;;;;;;5035408;27;95888;-58
2022/03/25 10:22:06;;;;;;;1.38;0.57;;;20.30;71.20;;;;;;5030628;27;96107;-59
2022/03/25 10:24:48;;;;;;;1.27;0.75;;;20.40;71.70;;;;;;5041015;27;96338;-58
2022/03/25 10:27:28;;;;;;;2.97;0.55;;;20.40;69.20;;;;;;5045273;27;95816;-59
2022/03/25 10:30:01;;;;;;;1.17;0.70;;;20.40;71.10;;;;;;5044612;27;95286;-59
2022/03/25 10:32:40;;;;;;;1.98;0.70;;;20.40;71.20;;;;;;5031705;27;96013;-59
2022/03/25 10:35:12;;;;;;;2.20;0.50;;;20.40;71.00;;;;;;5039295;27;95857;-58
2022/03/25 10:37:58;;;;;;;1.85;0.70;;;20.40;71.00;;;;;;5035825;27;95938;-59
2022/03/25 10:40:30;;;;;;;0.40;0.40;;;20.40;70.80;;;;;;5039237;27;97698;-58
2022/03/25 10:43:10;;;;;;;0.63;0.47;;;20.40;71.00;;;;;;5027164;27;96135;-62
2022/03/25 10:45:43;;;;;;;1.25;0.45;;;20.50;71.00;;;;;;5031612;27;101549;-58
2022/03/25 10:48:24;;;;;;;1.55;1.00;;;20.40;71.00;;;;;;5034608;27;95768;-63
2022/03/25 10:50:55;;;;;;;2.72;0.73;;;20.40;70.90;;;;;;5014847;27;95651;-56
2022/03/25 10:53:27;;;;;;;0.75;0.55;;;20.40;70.80;;;;;;5030887;27;95673;-63
2022/03/25 10:56:10;;;;;;;1.85;0.80;;;20.40;70.70;;;;;;5033969;27;96055;-63
2022/03/25 10:58:53;;;;;;;1.83;0.50;;;20.40;70.50;;;;;;5044247;27;95874;-63
2022/03/25 11:01:25;;;;;;;2.80;0.60;;;20.50;70.40;;;;;;5042168;27;95836;-59
2022/03/25 11:03:56;;;;;;;0.52;0.50;;;20.50;70.20;;;;;;5045268;27;95307;-62
2022/03/25 11:06:30;;;;;;;1.42;0.80;;;20.50;70.20;;;;;;5055022;27;96617;-60
2022/03/25 11:09:02;;;;;;;0.50;0.45;;;20.50;70.10;;;;;;5060333;27;96066;-58
2022/03/25 11:11:34;;;;;;;0.90;0.50;;;20.50;70.10;;;;;;5055947;27;95821;-58
2022/03/25 11:14:05;;;;;;;2.05;0.43;;;20.50;70.00;;;;;;5056088;27;95879;-59
2022/03/25 11:16:43;;;;;;;2.38;0.77;;;20.50;69.90;;;;;;5046292;27;95893;-62
2022/03/25 11:19:15;;;;;;;0.75;0.40;;;20.50;69.90;;;;;;5045595;27;96015;-63
2022/03/25 11:21:48;;;;;;;0.57;0.30;;;20.50;69.90;;;;;;5031080;27;95592;-63
2022/03/25 11:24:52;;;;;;;1.20;0.40;;;20.50;69.90;;;;;;5026906;27;95782;-63
2022/03/25 11:27:30;;;;;;;0.77;0.45;;;20.50;69.80;;;;;;5008460;27;95854;-63
2022/03/25 11:30:13;;;;;;;1.25;0.52;;;20.50;69.80;;;;;;5046096;27;95423;-63
2022/03/25 11:33:06;;;;;;;0.35;0.30;;;20.40;69.70;;;;;;5020745;27;95905;-63
2022/03/25 11:35:42;;;;;;;0.60;0.38;;;20.50;69.80;;;;;;5045825;27;95723;-60
2022/03/25 11:38:18;;;;;;;0.88;0.40;;;20.40;69.70;;;;;;5047653;27;95910;-60
2022/03/25 11:40:50;;;;;;;0.30;0.30;;;20.40;69.70;;;;;;5041627;27;96119;-63
2022/03/25 11:43:27;;;;;;;1.20;0.28;;;20.40;69.70;;;;;;5046368;27;95779;-60
2022/03/25 11:46:00;;;;;;;1.65;0.45;;;20.40;69.60;;;;;;5044811;27;95485;-63
2022/03/25 11:48:37;;;;;;;0.30;0.30;;;20.40;69.60;;;;;;5066163;27;96105;-64
2022/03/25 11:51:33;;;;;;;0.75;0.50;;;20.40;69.60;;;;;;5057005;27;95982;-64
2022/03/25 11:54:42;;;;;;;0.30;0.25;;;20.40;69.60;;;;;;5069960;27;95596;-63
2022/03/25 11:57:34;;;;;;;1.63;0.15;;;20.40;69.60;;;;;;5068634;27;95444;-64
2022/03/25 12:00:12;;;;;;;0.50;0.22;;;20.40;69.70;;;;;;5061595;27;95901;-63
2022/03/25 12:02:43;;;;;;;0.30;0.30;;;20.40;69.70;;;;;;5046733;27;102872;-64
2022/03/25 12:05:25;;;;;;;;;;;20.40;69.60;;;;;;5048171;27;95396;-63
2022/03/25 12:08:28;;;;;;;0.70;0.30;;;20.40;69.70;;;;;;5031740;27;95837;-64
2022/03/25 12:11:01;;;;;;;0.68;0.40;;;20.30;69.60;;;;;;5048261;27;95884;-64
2022/03/25 12:13:54;;;;;;;0.43;0.40;;;20.30;69.60;;;;;;5047532;27;95590;-63
2022/03/25 12:16:48;;;;;;;1.20;0.38;;;20.30;69.60;;;;;;5037800;27;95958;-64
2022/03/25 12:19:29;;;;;;;0.60;0.40;;;20.30;69.60;;;;;;5043349;27;95298;-64
2022/03/25 12:22:25;;;;;;;0.32;0.13;;;20.30;69.70;;;;;;5027937;27;95848;-63
2022/03/25 12:25:13;;;;;;;0.52;0.22;;;20.30;69.60;;;;;;5040593;27;95726;-63
2022/03/25 12:27:45;;;;;;;0.85;0.60;;;20.30;69.70;;;;;;5039661;27;95282;-64
2022/03/25 12:30:17;;;;;;;0.20;0.20;;;20.20;69.70;;;;;;5028630;27;95288;-64
2022/03/25 12:32:47;;;;;;;;;;;20.30;69.70;;;;;;5038121;27;96391;-63
2022/03/25 12:35:21;;;;;;;0.30;0.30;;;20.30;69.80;;;;;;5036266;27;95744;-64
2022/03/25 12:38:04;;;;;;;0.47;0.35;;;20.20;69.70;;;;;;5047484;27;95856;-62
2022/03/25 12:40:35;;;;;;;1.25;0.45;;;20.20;69.70;;;;;;5047969;27;95765;-63
2022/03/25 12:43:11;;;;;;;0.70;0.30;;;20.20;69.80;;;;;;5039196;27;95925;-63
2022/03/25 12:45:50;;;;;;;0.60;0.50;;;20.20;70.40;;;;;;5030243;27;95543;-63
2022/03/25 12:48:25;;;;;;;1.00;0.47;;;20.20;69.80;;;;;;5046391;27;95896;-64
2022/03/25 12:51:05;;;;;;;0.85;0.30;;;20.10;69.80;;;;;;5059285;27;95724;-65
2022/03/25 12:53:35;;;;;;;0.93;0.30;;;20.10;69.80;;;;;;5041472;27;96226;-65
2022/03/25 12:56:12;;;;;;;0.47;0.20;;;20.10;69.80;;;;;;5045599;27;95893;-64
2022/03/25 12:58:44;;;;;;;0.60;0.43;;;20.10;69.80;;;;;;5044063;27;95716;-64
2022/03/25 13:01:17;;;;;;;1.10;0.60;;;20.10;69.90;;;;;;5022069;27;96000;-63
2022/03/25 13:03:48;;;;;;;0.20;0.20;;;20.10;69.80;;;;;;5043680;27;95855;-62
2022/03/25 13:06:20;;;;;;;0.90;0.52;;;20.10;69.90;;;;;;5043824;27;95887;-64
2022/03/25 13:09:01;;;;;;;0.85;0.25;;;20.00;69.90;;;;;;5051227;27;95998;-62
2022/03/25 13:11:33;;;;;;;0.70;0.30;;;20.00;70.00;;;;;;5050459;27;95677;-63
2022/03/25 13:14:17;;;;;;;1.05;0.40;;;20.00;70.00;;;;;;5049313;27;95895;-63
2022/03/25 13:16:49;;;;;;;0.32;0.15;;;20.00;70.00;;;;;;5038467;27;97300;-63
2022/03/25 13:19:32;;;;;;;0.70;0.43;;;20.00;69.90;;;;;;5046799;27;95993;-63
2022/03/25 13:22:19;;;;;;;0.95;0.32;;;20.00;70.00;;;;;;5027636;27;95888;-63
2022/03/25 13:24:58;;;;;;;0.20;0.20;;;19.90;69.90;;;;;;5046707;27;95932;-63
2022/03/25 13:27:29;;;;;;;1.35;0.43;;;19.90;69.90;;;;;;5045860;27;95908;-64
2022/03/25 13:30:03;;;;;;;0.30;0.30;;;19.90;70.00;;;;;;5047473;27;95789;-63